Time;durP1;ratioP1;P1;durP2;ratioP2;P2;SDS_P1;SDS_P2;PMS_P1;PMS_P2;Temp;Humidity;BMP_temperature;BMP_pressure;BME280_temperature;BME280_humidity;BME280_pressure;Samples;Min_cycle;Max_cycle;Signal;HPM_P1;HPM_P2
2023/02/28 00:00:47;;;;;;;15.73;3.90;;;6.20;99.90;;;;;;4665264;30;20271;-73
2023/02/28 00:03:12;;;;;;;13.70;3.67;;;6.20;99.90;;;;;;4652350;30;20205;-73
2023/02/28 00:05:38;;;;;;;9.52;3.85;;;6.10;99.90;;;;;;4674045;30;20208;-73
2023/02/28 00:08:04;;;;;;;10.82;4.10;;;6.20;99.90;;;;;;4675516;30;20256;-74
2023/02/28 00:10:31;;;;;;;15.90;3.72;;;6.20;99.90;;;;;;4664179;30;20217;-73
2023/02/28 00:13:03;;;;;;;14.63;3.15;;;6.20;99.90;;;;;;4663468;30;20220;-73
2023/02/28 00:15:28;;;;;;;8.85;3.55;;;6.20;99.90;;;;;;4664632;30;20220;-78
2023/02/28 00:17:54;;;;;;;13.93;3.92;;;6.20;99.90;;;;;;4664378;30;20655;-75
2023/02/28 00:20:20;;;;;;;7.75;3.70;;;6.30;99.90;;;;;;4652562;30;20201;-72
2023/02/28 00:22:49;;;;;;;13.60;4.00;;;6.20;99.90;;;;;;4648257;30;20194;-72
2023/02/28 00:25:17;;;;;;;13.90;4.05;;;6.30;99.90;;;;;;4664989;30;20225;-72
2023/02/28 00:27:43;;;;;;;14.13;4.15;;;6.30;99.90;;;;;;4662216;30;20231;-73
2023/02/28 00:30:12;;;;;;;15.27;3.58;;;6.30;99.90;;;;;;4655978;30;20264;-73
2023/02/28 00:32:38;;;;;;;11.20;4.20;;;6.30;99.90;;;;;;4648138;30;20189;-75
2023/02/28 00:35:04;;;;;;;12.10;3.67;;;6.30;99.90;;;;;;4682251;30;20212;-73
2023/02/28 00:37:30;;;;;;;16.85;3.67;;;6.30;99.90;;;;;;4664438;30;20266;-74
2023/02/28 00:39:56;;;;;;;10.20;3.78;;;6.40;99.90;;;;;;4660938;30;20193;-73
2023/02/28 00:42:22;;;;;;;11.15;3.38;;;6.40;99.90;;;;;;4657053;30;20235;-74
2023/02/28 00:44:48;;;;;;;12.02;3.50;;;6.30;99.90;;;;;;4677183;30;20236;-74
2023/02/28 00:47:14;;;;;;;9.32;3.50;;;6.30;99.90;;;;;;4650306;30;20194;-74
2023/02/28 00:49:40;;;;;;;12.50;3.42;;;6.20;99.90;;;;;;4677186;30;20252;-78
2023/02/28 00:52:06;;;;;;;9.32;3.45;;;6.20;99.90;;;;;;4663809;30;20287;-72
2023/02/28 00:54:31;;;;;;;16.73;3.60;;;6.20;99.90;;;;;;4668638;30;20636;-74
2023/02/28 00:56:57;;;;;;;11.23;3.40;;;6.20;99.90;;;;;;4635480;30;20194;-74
2023/02/28 00:59:24;;;;;;;18.20;3.22;;;6.20;99.90;;;;;;4675848;30;20224;-75
2023/02/28 01:01:50;;;;;;;10.70;3.40;;;6.20;99.90;;;;;;4668303;30;20241;-75
2023/02/28 01:04:16;;;;;;;11.48;3.60;;;6.20;99.90;;;;;;4663937;30;20228;-73
2023/02/28 01:06:42;;;;;;;8.50;3.40;;;6.20;99.90;;;;;;4668003;30;20730;-73
2023/02/28 01:09:10;;;;;;;11.35;3.10;;;6.20;99.90;;;;;;4679207;30;20201;-73
2023/02/28 01:11:36;;;;;;;7.43;3.35;;;6.20;99.90;;;;;;4661059;30;20201;-72
2023/02/28 01:14:03;;;;;;;13.05;3.40;;;6.30;99.90;;;;;;4677692;30;20207;-73
2023/02/28 01:16:30;;;;;;;12.77;3.70;;;6.30;99.90;;;;;;4681500;30;20197;-75
2023/02/28 01:18:56;;;;;;;13.18;3.47;;;6.30;99.90;;;;;;4672386;30;20291;-75
2023/02/28 01:21:22;;;;;;;17.55;3.50;;;6.30;99.90;;;;;;4666892;30;20651;-74
2023/02/28 01:23:49;;;;;;;10.88;3.30;;;6.30;99.90;;;;;;4659069;30;20326;-74
2023/02/28 01:26:20;;;;;;;22.42;3.80;;;6.30;99.90;;;;;;4685033;30;21040;-74
2023/02/28 01:28:47;;;;;;;13.65;3.80;;;6.20;99.90;;;;;;4680866;30;20219;-74
2023/02/28 01:31:13;;;;;;;11.63;3.58;;;6.30;99.90;;;;;;4669125;30;20197;-74
2023/02/28 01:33:40;;;;;;;12.27;3.30;;;6.30;99.90;;;;;;4674413;30;20626;-74
2023/02/28 01:36:09;;;;;;;12.38;3.97;;;6.30;99.90;;;;;;4657697;30;20611;-75
2023/02/28 01:38:35;;;;;;;12.93;3.90;;;6.30;99.90;;;;;;4651812;30;20195;-76
2023/02/28 01:41:01;;;;;;;12.15;3.47;;;6.30;99.90;;;;;;4684794;30;20534;-74
2023/02/28 01:43:32;;;;;;;11.82;3.78;;;6.30;99.90;;;;;;4679507;30;20278;-76
2023/02/28 01:45:59;;;;;;;11.80;3.42;;;6.30;99.90;;;;;;4656457;30;20606;-75
2023/02/28 01:48:35;;;;;;;9.43;3.50;;;6.30;99.90;;;;;;4650293;30;20323;-74
2023/02/28 01:51:10;;;;;;;10.00;3.42;;;6.30;99.90;;;;;;4667326;30;20182;-74
2023/02/28 01:53:42;;;;;;;13.35;3.67;;;6.20;99.90;;;;;;4653105;30;20647;-74
2023/02/28 01:56:11;;;;;;;14.15;3.20;;;6.30;99.90;;;;;;4682515;30;20197;-74
2023/02/28 01:58:37;;;;;;;13.45;3.20;;;6.20;99.90;;;;;;4666691;30;20224;-74
2023/02/28 02:01:04;;;;;;;18.95;3.47;;;6.30;99.90;;;;;;4652831;30;20651;-73
2023/02/28 02:03:30;;;;;;;9.50;3.20;;;6.20;99.90;;;;;;4665459;30;20201;-73
2023/02/28 02:05:56;;;;;;;18.05;2.92;;;6.20;99.90;;;;;;4666252;30;20203;-73
2023/02/28 02:08:28;;;;;;;10.57;3.13;;;6.20;99.90;;;;;;4666390;30;20204;-73
2023/02/28 02:11:01;;;;;;;12.07;3.28;;;6.20;99.90;;;;;;4673557;30;20236;-73
2023/02/28 02:13:39;;;;;;;9.63;2.97;;;6.30;99.90;;;;;;4650737;30;20232;-73
2023/02/28 02:16:51;;;;;;;13.05;3.40;;;6.30;99.90;;;;;;4649712;30;20225;-73
2023/02/28 02:19:40;;;;;;;9.88;3.22;;;6.30;99.90;;;;;;4653749;30;20204;-74
2023/02/28 02:22:12;;;;;;;10.63;3.22;;;6.20;99.90;;;;;;4667037;30;20185;-73
2023/02/28 02:24:55;;;;;;;8.18;2.63;;;6.20;99.90;;;;;;4631250;30;20767;-75
2023/02/28 02:27:38;;;;;;;9.60;2.83;;;6.20;99.90;;;;;;4661516;30;20208;-76
2023/02/28 02:30:42;;;;;;;10.57;2.75;;;6.10;99.90;;;;;;4650133;30;20197;-73
2023/02/28 02:33:37;;;;;;;9.38;2.88;;;6.10;99.90;;;;;;4644207;30;20197;-73
2023/02/28 02:36:33;;;;;;;11.63;2.78;;;6.10;99.90;;;;;;4651253;30;20205;-74
2023/02/28 02:39:04;;;;;;;9.20;2.95;;;6.00;99.90;;;;;;4667656;30;20597;-74
2023/02/28 02:41:39;;;;;;;10.93;2.70;;;6.00;99.90;;;;;;4679293;30;20192;-73
2023/02/28 02:44:27;;;;;;;14.43;3.40;;;6.10;99.90;;;;;;4650262;30;20274;-74
2023/02/28 02:47:08;;;;;;;10.00;3.05;;;6.10;99.90;;;;;;4650674;30;20197;-75
2023/02/28 02:49:37;;;;;;;12.50;3.50;;;6.10;99.90;;;;;;4663711;30;20251;-73
2023/02/28 02:52:10;;;;;;;12.50;3.50;;;6.10;99.90;;;;;;4668493;30;20197;-74
2023/02/28 02:54:41;;;;;;;11.45;2.88;;;6.10;99.90;;;;;;4655407;30;20279;-74
2023/02/28 02:57:14;;;;;;;11.00;3.00;;;6.10;99.90;;;;;;4664817;30;20592;-74
2023/02/28 02:59:42;;;;;;;6.72;2.42;;;6.10;99.90;;;;;;4680031;30;20196;-72
2023/02/28 03:02:14;;;;;;;15.52;3.10;;;6.10;99.90;;;;;;4666476;30;20201;-73
2023/02/28 03:04:48;;;;;;;10.05;2.92;;;6.10;99.90;;;;;;4658693;30;20568;-72
2023/02/28 03:07:14;;;;;;;10.20;3.20;;;6.10;99.90;;;;;;4650376;30;20271;-73
2023/02/28 03:09:40;;;;;;;15.63;5.50;;;6.10;99.90;;;;;;4665563;30;20685;-73
2023/02/28 03:12:11;;;;;;;13.63;6.50;;;6.10;99.90;;;;;;4683393;30;20200;-72
2023/02/28 03:15:02;;;;;;;17.90;8.13;;;6.20;99.90;;;;;;4675627;30;20240;-72
2023/02/28 03:18:00;;;;;;;15.07;8.70;;;6.10;99.90;;;;;;4663131;30;20201;-72
2023/02/28 03:20:44;;;;;;;15.00;8.07;;;6.00;99.90;;;;;;4655181;30;20197;-73
2023/02/28 03:23:21;;;;;;;15.40;7.30;;;6.00;99.90;;;;;;4669349;30;20220;-73
2023/02/28 03:26:07;;;;;;;17.27;7.28;;;6.00;99.90;;;;;;4659414;30;20212;-73
2023/02/28 03:28:42;;;;;;;13.18;7.00;;;6.00;99.90;;;;;;4656390;30;20216;-73
2023/02/28 03:31:38;;;;;;;13.68;7.28;;;5.90;99.90;;;;;;4668710;30;20197;-72
2023/02/28 03:34:08;;;;;;;17.25;8.48;;;5.90;99.90;;;;;;4670239;30;20199;-74
2023/02/28 03:36:45;;;;;;;14.68;8.52;;;5.90;99.90;;;;;;4660160;30;20194;-73
2023/02/28 03:39:25;;;;;;;15.50;9.38;;;5.80;99.90;;;;;;4672150;30;20219;-75
2023/02/28 03:41:57;;;;;;;14.02;9.40;;;5.80;99.90;;;;;;4652088;30;20193;-74
2023/02/28 03:44:32;;;;;;;15.27;9.20;;;5.80;99.90;;;;;;4677513;30;20220;-74
2023/02/28 03:47:06;;;;;;;15.90;9.75;;;5.70;99.90;;;;;;4674275;30;20311;-74
2023/02/28 03:49:43;;;;;;;17.17;9.85;;;5.70;99.90;;;;;;4675148;30;20260;-74
2023/02/28 03:52:09;;;;;;;18.65;10.25;;;5.70;99.90;;;;;;4682838;30;20177;-74
2023/02/28 03:54:50;;;;;;;17.88;10.18;;;5.50;99.90;;;;;;4676452;30;20197;-74
2023/02/28 03:57:34;;;;;;;16.95;9.93;;;5.60;99.90;;;;;;4664690;30;20207;-74
2023/02/28 04:00:06;;;;;;;16.38;10.15;;;5.60;99.90;;;;;;4662383;30;20288;-74
2023/02/28 04:02:39;;;;;;;13.32;9.50;;;5.50;99.90;;;;;;4668395;30;20235;-74
2023/02/28 04:05:06;;;;;;;17.25;9.25;;;5.50;99.90;;;;;;4680890;30;20232;-74
2023/02/28 04:07:32;;;;;;;18.35;8.93;;;5.50;99.90;;;;;;4676722;30;20264;-75
2023/02/28 04:09:58;;;;;;;17.25;9.65;;;5.50;99.90;;;;;;4682427;30;20197;-75
2023/02/28 04:12:25;;;;;;;15.75;9.07;;;5.40;99.90;;;;;;4680395;30;20180;-78
2023/02/28 04:14:51;;;;;;;15.40;9.35;;;5.40;99.90;;;;;;4658136;30;20374;-75
2023/02/28 04:17:17;;;;;;;14.98;9.15;;;5.40;99.90;;;;;;4659839;30;20194;-74
2023/02/28 04:19:42;;;;;;;16.20;9.35;;;5.30;99.90;;;;;;4662236;30;20557;-74
2023/02/28 04:22:09;;;;;;;15.63;8.50;;;5.30;99.90;;;;;;4664387;30;20274;-74
2023/02/28 04:24:36;;;;;;;12.50;8.45;;;5.30;99.90;;;;;;4677542;30;20235;-75
2023/02/28 04:27:02;;;;;;;12.50;8.65;;;5.30;99.90;;;;;;4682038;30;20275;-74
2023/02/28 04:29:32;;;;;;;10.77;7.93;;;5.30;99.90;;;;;;4663746;30;20197;-74
2023/02/28 04:31:58;;;;;;;11.32;7.60;;;5.20;99.90;;;;;;4665554;30;20196;-74
2023/02/28 04:34:26;;;;;;;11.57;7.70;;;5.20;99.90;;;;;;4664960;30;20209;-74
2023/02/28 04:36:54;;;;;;;11.40;7.95;;;5.20;99.90;;;;;;4653426;30;20558;-73
2023/02/28 04:39:23;;;;;;;11.32;7.85;;;5.20;99.90;;;;;;4668618;30;20220;-74
2023/02/28 04:41:50;;;;;;;11.73;7.80;;;5.20;99.90;;;;;;4667826;30;20201;-74
2023/02/28 04:44:15;;;;;;;8.95;6.35;;;5.10;99.90;;;;;;4671186;30;20236;-77
2023/02/28 04:46:42;;;;;;;11.48;6.88;;;5.10;99.90;;;;;;4666938;30;20721;-74
2023/02/28 04:49:12;;;;;;;9.27;6.70;;;5.10;99.90;;;;;;4675372;30;20240;-74
2023/02/28 04:51:38;;;;;;;10.65;6.85;;;5.10;99.90;;;;;;4676717;30;20569;-75
2023/02/28 04:54:04;;;;;;;10.68;6.50;;;5.10;99.90;;;;;;4677151;30;20271;-73
2023/02/28 04:56:30;;;;;;;10.60;6.57;;;5.10;99.90;;;;;;4685216;30;20189;-73
2023/02/28 04:58:56;;;;;;;11.43;6.43;;;5.10;99.90;;;;;;4681460;30;20196;-72
2023/02/28 05:01:27;;;;;;;11.20;6.15;;;5.00;99.90;;;;;;4655802;30;20201;-73
2023/02/28 05:03:55;;;;;;;9.82;6.32;;;5.00;99.90;;;;;;4676114;30;20220;-73
2023/02/28 05:06:23;;;;;;;9.32;6.43;;;4.90;99.90;;;;;;4673167;30;20221;-74
2023/02/28 05:08:49;;;;;;;10.07;6.93;;;4.90;99.90;;;;;;4682509;30;20200;-72
2023/02/28 05:11:20;;;;;;;10.98;6.30;;;4.90;99.90;;;;;;4669288;30;20667;-73
2023/02/28 05:13:46;;;;;;;10.68;6.13;;;4.90;99.90;;;;;;4675392;30;20204;-73
2023/02/28 05:16:12;;;;;;;8.77;6.50;;;4.90;99.90;;;;;;4682355;30;20212;-73
2023/02/28 05:18:38;;;;;;;11.80;7.00;;;4.80;99.90;;;;;;4651932;30;20232;-73
2023/02/28 05:21:04;;;;;;;10.32;6.95;;;4.80;99.90;;;;;;4671922;30;20569;-74
2023/02/28 05:23:29;;;;;;;10.32;6.97;;;4.80;99.90;;;;;;4671420;30;20201;-75
2023/02/28 05:25:56;;;;;;;9.77;6.75;;;4.80;99.90;;;;;;4669988;30;20690;-73
2023/02/28 05:28:22;;;;;;;11.35;7.18;;;4.80;99.90;;;;;;4666940;30;20204;-73
2023/02/28 05:30:48;;;;;;;10.45;7.07;;;4.70;99.90;;;;;;4685380;30;20188;-73
2023/02/28 05:33:14;;;;;;;9.02;6.88;;;4.70;99.90;;;;;;4676837;30;20288;-72
2023/02/28 05:35:41;;;;;;;10.70;6.82;;;4.70;99.90;;;;;;4668756;30;20213;-74
2023/02/28 05:38:07;;;;;;;10.43;7.32;;;4.70;99.90;;;;;;4668873;30;20578;-73
2023/02/28 05:40:33;;;;;;;12.18;7.78;;;4.60;99.90;;;;;;4676148;30;20214;-73
2023/02/28 05:42:59;;;;;;;13.57;8.65;;;4.70;99.90;;;;;;4665213;30;20197;-72
2023/02/28 05:45:24;;;;;;;13.68;9.27;;;4.60;99.90;;;;;;4666864;30;20520;-72
2023/02/28 05:47:53;;;;;;;14.45;8.18;;;4.60;99.90;;;;;;4668285;30;20795;-74
2023/02/28 05:50:19;;;;;;;12.98;7.68;;;4.60;99.90;;;;;;4684717;30;20181;-73
2023/02/28 05:52:50;;;;;;;13.30;8.63;;;4.60;99.90;;;;;;4666050;30;20287;-73
2023/02/28 05:55:16;;;;;;;14.10;8.70;;;4.60;99.90;;;;;;4683029;30;20196;-73
2023/02/28 05:57:42;;;;;;;14.10;8.95;;;4.60;99.90;;;;;;4666156;30;20277;-73
2023/02/28 06:00:09;;;;;;;16.75;9.27;;;4.60;99.90;;;;;;4666492;30;20324;-76
2023/02/28 06:02:40;;;;;;;12.90;9.07;;;4.60;99.90;;;;;;4660521;30;20201;-73
2023/02/28 06:05:12;;;;;;;15.57;8.98;;;4.60;99.90;;;;;;4658263;30;20230;-73
2023/02/28 06:07:38;;;;;;;14.32;9.25;;;4.60;99.90;;;;;;4670669;30;20229;-73
2023/02/28 06:10:04;;;;;;;13.98;9.43;;;4.70;99.90;;;;;;4679491;30;20225;-73
2023/02/28 06:12:30;;;;;;;15.13;9.52;;;4.60;99.90;;;;;;4649123;30;20201;-74
2023/02/28 06:14:56;;;;;;;14.40;9.55;;;4.60;99.90;;;;;;4635305;30;20607;-73
2023/02/28 06:17:21;;;;;;;17.63;10.23;;;4.60;99.90;;;;;;4656406;30;20691;-75
2023/02/28 06:19:47;;;;;;;15.05;10.43;;;4.60;99.90;;;;;;4658703;30;20281;-73
2023/02/28 06:22:13;;;;;;;15.60;10.20;;;4.70;99.90;;;;;;4658020;30;20229;-74
2023/02/28 06:24:39;;;;;;;16.88;10.77;;;4.60;99.90;;;;;;4657555;30;20230;-73
2023/02/28 06:27:05;;;;;;;14.48;10.68;;;4.50;99.90;;;;;;4666652;30;20660;-73
2023/02/28 06:29:33;;;;;;;17.00;10.65;;;4.60;99.90;;;;;;4662374;30;20223;-75
2023/02/28 06:31:59;;;;;;;18.42;10.27;;;4.60;99.90;;;;;;4651454;30;20201;-74
2023/02/28 06:34:24;;;;;;;16.73;9.98;;;4.60;99.90;;;;;;4664510;30;20213;-73
2023/02/28 06:36:51;;;;;;;15.57;10.00;;;4.50;99.90;;;;;;4666747;30;20395;-73
2023/02/28 06:39:17;;;;;;;17.58;10.35;;;4.50;99.90;;;;;;4677396;30;20288;-74
2023/02/28 06:41:45;;;;;;;16.38;9.88;;;4.40;99.90;;;;;;4661549;30;20276;-75
2023/02/28 06:44:16;;;;;;;16.98;10.38;;;4.40;99.90;;;;;;4665411;30;20365;-73
2023/02/28 06:46:42;;;;;;;14.50;9.20;;;4.40;99.90;;;;;;4660865;30;20675;-73
2023/02/28 06:49:09;;;;;;;18.30;10.55;;;4.40;99.90;;;;;;4672897;30;20244;-73
2023/02/28 06:51:37;;;;;;;17.90;10.50;;;4.40;99.90;;;;;;4683671;30;20660;-74
2023/02/28 06:54:03;;;;;;;17.13;10.73;;;4.30;99.90;;;;;;4648916;30;20210;-74
2023/02/28 06:56:29;;;;;;;17.08;10.43;;;4.30;99.90;;;;;;4641493;30;20289;-73
2023/02/28 06:58:56;;;;;;;16.73;9.80;;;4.30;99.90;;;;;;4673530;30;20220;-73
2023/02/28 07:01:23;;;;;;;17.20;10.82;;;4.20;99.90;;;;;;4665713;30;20213;-73
2023/02/28 07:03:52;;;;;;;20.15;11.70;;;4.10;99.90;;;;;;4673918;30;20311;-72
2023/02/28 07:06:22;;;;;;;19.55;11.80;;;4.10;99.90;;;;;;4651003;30;20271;-74
2023/02/28 07:08:49;;;;;;;21.85;11.63;;;4.10;99.90;;;;;;4672440;30;20256;-73
2023/02/28 07:11:14;;;;;;;30.02;15.90;;;4.10;99.90;;;;;;4668301;30;20202;-73
2023/02/28 07:13:40;;;;;;;26.90;14.57;;;4.10;99.90;;;;;;4658466;30;20202;-74
2023/02/28 07:16:09;;;;;;;22.95;12.25;;;4.10;99.90;;;;;;4643733;30;20231;-74
2023/02/28 07:18:36;;;;;;;20.27;12.13;;;4.10;99.90;;;;;;4645544;30;20194;-73
2023/02/28 07:21:03;;;;;;;19.58;12.00;;;4.20;99.90;;;;;;4653269;30;20198;-74
2023/02/28 07:23:29;;;;;;;20.63;11.55;;;4.20;99.90;;;;;;4662369;30;20556;-74
2023/02/28 07:25:55;;;;;;;21.08;12.30;;;4.20;99.90;;;;;;4670456;30;20205;-74
2023/02/28 07:28:21;;;;;;;18.10;11.32;;;4.20;99.90;;;;;;4668604;30;20215;-75
2023/02/28 07:30:48;;;;;;;20.48;12.25;;;4.20;99.90;;;;;;4645037;30;20576;-73
2023/02/28 07:33:14;;;;;;;27.95;15.55;;;4.20;99.90;;;;;;4670154;30;20622;-74
2023/02/28 07:35:40;;;;;;;20.30;12.63;;;4.20;99.90;;;;;;4651646;30;20204;-72
2023/02/28 07:38:07;;;;;;;24.35;13.73;;;4.20;99.90;;;;;;4668798;30;20193;-74
2023/02/28 07:40:34;;;;;;;23.52;12.95;;;4.30;99.90;;;;;;4667100;30;20624;-73
2023/02/28 07:43:01;;;;;;;20.30;12.85;;;4.30;99.90;;;;;;4667495;30;20279;-73
2023/02/28 07:45:28;;;;;;;28.35;12.48;;;4.30;99.90;;;;;;4682827;30;20220;-76
2023/02/28 07:47:55;;;;;;;20.23;13.23;;;4.30;99.90;;;;;;4651242;30;20668;-73
2023/02/28 07:50:21;;;;;;;20.48;12.32;;;4.30;99.90;;;;;;4674358;30;20384;-73
2023/02/28 07:52:47;;;;;;;23.73;12.00;;;4.30;99.90;;;;;;4662039;30;20214;-73
2023/02/28 07:55:13;;;;;;;18.65;12.02;;;4.40;99.90;;;;;;4665149;30;20201;-73
2023/02/28 07:57:40;;;;;;;17.58;12.25;;;4.40;99.90;;;;;;4664001;30;20206;-73
2023/02/28 08:00:09;;;;;;;21.05;12.02;;;4.50;99.90;;;;;;4663076;30;20202;-76
2023/02/28 08:02:39;;;;;;;21.83;12.18;;;4.40;99.90;;;;;;4665818;30;20194;-73
2023/02/28 08:05:06;;;;;;;22.52;11.38;;;4.50;99.90;;;;;;4666603;30;20239;-74
2023/02/28 08:07:33;;;;;;;21.83;11.90;;;4.50;99.90;;;;;;4669082;30;20304;-74
2023/02/28 08:09:59;;;;;;;18.38;11.38;;;4.50;99.90;;;;;;4656131;30;20193;-75
2023/02/28 08:12:25;;;;;;;20.65;12.38;;;4.50;99.90;;;;;;4660401;30;20194;-75
2023/02/28 08:14:51;;;;;;;19.00;11.32;;;4.60;99.90;;;;;;4648832;30;20319;-74
2023/02/28 08:17:17;;;;;;;24.63;11.65;;;4.60;99.90;;;;;;4672146;30;20201;-73
2023/02/28 08:19:45;;;;;;;23.33;12.80;;;4.70;99.90;;;;;;4676421;30;20278;-72
2023/02/28 08:22:11;;;;;;;21.80;12.32;;;4.70;99.90;;;;;;4665051;30;20731;-76
2023/02/28 08:24:37;;;;;;;22.20;12.75;;;4.70;99.90;;;;;;4664124;30;20328;-72
2023/02/28 08:27:03;;;;;;;19.90;12.00;;;4.70;99.90;;;;;;4666395;30;20193;-72
2023/02/28 08:29:30;;;;;;;22.67;12.65;;;4.80;99.90;;;;;;4666042;30;20552;-75
2023/02/28 08:31:56;;;;;;;20.15;12.15;;;4.80;99.90;;;;;;4671712;30;20293;-75
2023/02/28 08:34:21;;;;;;;18.98;12.30;;;4.80;99.90;;;;;;4650881;30;20220;-73
2023/02/28 08:36:47;;;;;;;22.60;12.75;;;4.90;99.90;;;;;;4649563;30;20197;-73
2023/02/28 08:39:13;;;;;;;21.52;11.88;;;4.90;99.90;;;;;;4660963;30;20295;-74
2023/02/28 08:41:39;;;;;;;17.90;11.90;;;4.90;99.90;;;;;;4674042;30;20197;-74
2023/02/28 08:44:04;;;;;;;21.65;12.52;;;4.90;99.90;;;;;;4662468;30;20691;-73
2023/02/28 08:46:30;;;;;;;20.77;12.48;;;4.90;99.90;;;;;;4665190;30;20209;-72
2023/02/28 08:49:01;;;;;;;20.45;12.45;;;4.90;99.90;;;;;;4655426;30;20245;-74
2023/02/28 08:51:27;;;;;;;24.77;13.93;;;5.00;99.90;;;;;;4672142;30;20205;-75
2023/02/28 08:53:55;;;;;;;20.60;13.65;;;5.00;99.90;;;;;;4672978;30;20193;-72
2023/02/28 08:56:21;;;;;;;25.35;13.50;;;5.00;99.90;;;;;;4676333;30;20202;-72
2023/02/28 08:58:49;;;;;;;22.00;12.95;;;5.10;99.90;;;;;;4672381;30;20291;-72
2023/02/28 09:01:21;;;;;;;24.73;13.57;;;5.20;99.90;;;;;;4671213;30;20275;-75
2023/02/28 09:03:49;;;;;;;18.98;12.10;;;5.20;99.90;;;;;;4671952;30;20686;-72
2023/02/28 09:06:16;;;;;;;22.35;13.30;;;5.20;99.90;;;;;;4666292;30;20194;-73
2023/02/28 09:08:42;;;;;;;22.67;13.40;;;5.20;99.90;;;;;;4668052;30;20264;-75
2023/02/28 09:11:09;;;;;;;19.38;12.63;;;5.30;99.90;;;;;;4677658;30;20219;-75
2023/02/28 09:13:35;;;;;;;22.20;12.52;;;5.40;99.90;;;;;;4667050;30;20244;-74
2023/02/28 09:16:06;;;;;;;21.20;12.32;;;5.40;99.90;;;;;;4664129;30;20221;-73
2023/02/28 09:18:37;;;;;;;24.23;12.15;;;5.40;99.90;;;;;;4670526;30;20197;-72
2023/02/28 09:21:08;;;;;;;22.50;12.32;;;5.30;99.90;;;;;;4681765;30;20319;-74
2023/02/28 09:23:34;;;;;;;23.27;13.00;;;5.40;99.90;;;;;;4653289;30;20196;-75
2023/02/28 09:26:00;;;;;;;21.13;12.38;;;5.50;99.90;;;;;;4664684;30;20826;-74
2023/02/28 09:28:26;;;;;;;24.10;13.25;;;5.80;99.90;;;;;;4672541;30;20213;-74
2023/02/28 09:30:54;;;;;;;21.90;12.30;;;6.00;99.90;;;;;;4684585;30;20221;-74
2023/02/28 09:33:21;;;;;;;18.70;12.60;;;6.20;99.90;;;;;;4675010;30;20201;-74
2023/02/28 09:35:48;;;;;;;18.88;12.30;;;6.50;99.90;;;;;;4667885;30;20225;-74
2023/02/28 09:38:13;;;;;;;21.83;12.93;;;6.70;99.90;;;;;;4668368;30;20192;-75
2023/02/28 09:41:11;;;;;;;22.77;12.60;;;7.00;99.90;;;;;;4683121;30;20223;-75
2023/02/28 09:43:42;;;;;;;21.20;12.30;;;7.40;99.90;;;;;;4677224;30;20201;-76
2023/02/28 09:46:29;;;;;;;21.90;12.50;;;7.80;99.90;;;;;;4684491;30;20259;-75
2023/02/28 09:48:55;;;;;;;17.85;12.15;;;8.30;99.90;;;;;;4668994;30;20328;-76
2023/02/28 09:51:45;;;;;;;18.77;11.95;;;8.70;99.90;;;;;;4667515;30;20276;-75
2023/02/28 09:54:18;;;;;;;17.60;11.60;;;9.10;99.90;;;;;;4660293;30;20784;-76
2023/02/28 09:56:57;;;;;;;18.65;12.07;;;9.50;99.90;;;;;;4651982;30;20194;-75
2023/02/28 09:59:26;;;;;;;19.10;11.45;;;9.90;99.90;;;;;;4670140;30;20193;-74
2023/02/28 10:02:00;;;;;;;19.15;11.10;;;10.30;99.90;;;;;;4667049;30;20189;-74
2023/02/28 10:04:41;;;;;;;15.38;10.05;;;10.70;99.90;;;;;;4678367;30;20219;-75
2023/02/28 10:07:28;;;;;;;16.23;9.57;;;11.10;99.90;;;;;;4682025;30;20651;-75
2023/02/28 10:10:00;;;;;;;16.23;9.95;;;11.40;99.90;;;;;;4678484;30;20191;-75
2023/02/28 10:12:27;;;;;;;16.77;9.55;;;11.60;99.90;;;;;;4682420;30;20260;-76
2023/02/28 10:14:55;;;;;;;15.32;9.15;;;11.70;99.90;;;;;;4651633;30;20210;-74
2023/02/28 10:17:29;;;;;;;17.70;10.00;;;11.90;99.90;;;;;;4650673;30;20197;-76
2023/02/28 10:19:58;;;;;;;16.00;9.95;;;12.10;99.90;;;;;;4678393;30;20204;-76
2023/02/28 10:22:58;;;;;;;16.60;9.90;;;12.40;99.90;;;;;;4665489;30;20743;-76
2023/02/28 10:25:27;;;;;;;13.88;9.48;;;12.60;99.90;;;;;;4621800;30;20751;-74
2023/02/28 10:28:00;;;;;;;13.40;9.55;;;12.70;99.90;;;;;;4666785;30;20197;-76
2023/02/28 10:30:26;;;;;;;15.50;9.35;;;12.90;99.90;;;;;;4669243;30;20198;-75
2023/02/28 10:32:54;;;;;;;14.50;8.73;;;13.10;99.90;;;;;;4663864;30;20197;-77
2023/02/28 10:35:25;;;;;;;12.98;7.82;;;13.20;99.90;;;;;;4679517;30;20346;-73
2023/02/28 10:37:55;;;;;;;14.57;9.13;;;13.20;99.90;;;;;;4666516;30;20196;-73
2023/02/28 10:40:20;;;;;;;12.02;8.27;;;13.30;99.90;;;;;;4683560;30;20188;-74
2023/02/28 10:43:01;;;;;;;10.68;7.70;;;13.40;99.90;;;;;;4674936;30;20190;-74
2023/02/28 10:45:33;;;;;;;13.40;8.10;;;13.40;99.90;;;;;;4667230;30;20690;-73
2023/02/28 10:48:06;;;;;;;11.77;7.28;;;13.40;99.90;;;;;;4662794;30;20743;-73
2023/02/28 10:50:49;;;;;;;13.55;7.50;;;13.60;99.90;;;;;;4666496;30;20272;-73
2023/02/28 10:53:24;;;;;;;13.00;6.68;;;14.00;99.90;;;;;;4665126;30;20197;-74
2023/02/28 10:56:08;;;;;;;9.43;5.40;;;14.20;99.90;;;;;;4651185;30;20640;-73
2023/02/28 10:59:00;;;;;;;10.90;5.97;;;14.10;99.90;;;;;;4664731;30;20208;-73
2023/02/28 11:01:43;;;;;;;11.85;6.82;;;14.00;99.30;;;;;;4683420;30;20193;-74
2023/02/28 11:04:39;;;;;;;9.90;6.40;;;14.00;98.90;;;;;;4668263;30;20228;-74
2023/02/28 11:07:16;;;;;;;12.23;5.35;;;14.20;98.70;;;;;;4666230;30;20182;-74
2023/02/28 11:09:47;;;;;;;7.57;4.53;;;14.40;97.90;;;;;;4650242;30;20509;-73
2023/02/28 11:12:54;;;;;;;8.80;5.35;;;14.50;96.80;;;;;;4666117;30;20212;-74
2023/02/28 11:15:25;;;;;;;8.30;4.55;;;14.70;95.60;;;;;;4586496;31;20204;-73
2023/02/28 11:17:55;;;;;;;8.00;5.07;;;14.70;94.60;;;;;;4583945;31;20207;-73
2023/02/28 11:20:26;;;;;;;5.72;4.30;;;14.90;93.80;;;;;;4640796;30;20216;-73
2023/02/28 11:22:54;;;;;;;5.85;4.50;;;15.00;92.90;;;;;;4678971;30;20196;-73
2023/02/28 11:25:46;;;;;;;7.15;5.00;;;14.90;91.80;;;;;;4678535;30;20275;-73
2023/02/28 11:28:33;;;;;;;7.45;4.78;;;14.70;91.00;;;;;;4670364;30;20203;-73
2023/02/28 11:31:11;;;;;;;8.25;4.90;;;14.60;91.10;;;;;;4665137;30;20279;-73
2023/02/28 11:33:42;;;;;;;9.48;5.88;;;14.60;90.90;;;;;;4666607;30;20201;-74
2023/02/28 11:36:24;;;;;;;11.15;6.03;;;14.60;90.40;;;;;;4653203;30;20615;-75
2023/02/28 11:38:51;;;;;;;8.18;5.93;;;14.30;89.90;;;;;;4680351;30;20283;-76
2023/02/28 11:41:20;;;;;;;11.15;6.43;;;14.20;90.30;;;;;;4662340;30;20205;-74
2023/02/28 11:44:19;;;;;;;7.22;5.80;;;14.10;90.10;;;;;;4673191;30;20263;-74
2023/02/28 11:47:15;;;;;;;10.15;6.50;;;14.00;90.00;;;;;;4667760;30;20291;-73
2023/02/28 11:50:16;;;;;;;8.32;6.20;;;13.80;90.30;;;;;;4652965;30;20719;-75
2023/02/28 11:53:12;;;;;;;10.73;6.57;;;13.50;89.50;;;;;;4596777;30;20212;-74
2023/02/28 11:55:53;;;;;;;10.85;6.60;;;13.30;89.90;;;;;;4667013;30;20555;-72
2023/02/28 11:58:37;;;;;;;6.95;4.95;;;13.40;91.00;;;;;;4679252;30;20192;-74
2023/02/28 12:01:26;;;;;;;8.40;5.30;;;13.50;90.60;;;;;;4676581;30;20263;-74
2023/02/28 12:04:07;;;;;;;11.52;6.07;;;13.60;90.20;;;;;;4668085;30;20219;-77
2023/02/28 12:07:08;;;;;;;9.57;5.00;;;13.50;89.80;;;;;;4658432;30;20189;-73
2023/02/28 12:10:10;;;;;;;8.10;5.30;;;13.50;89.30;;;;;;4678911;30;20641;-73
2023/02/28 12:12:36;;;;;;;9.13;5.13;;;13.50;89.00;;;;;;4678238;30;20242;-76
2023/02/28 12:15:15;;;;;;;9.50;6.05;;;13.40;88.10;;;;;;4647992;30;20241;-74
2023/02/28 12:18:06;;;;;;;9.00;5.68;;;13.10;87.10;;;;;;4668810;30;20200;-72
2023/02/28 12:20:41;;;;;;;9.85;5.70;;;12.80;86.90;;;;;;4675830;30;20193;-73
2023/02/28 12:23:33;;;;;;;6.85;5.10;;;12.70;88.80;;;;;;4667894;30;20188;-76
2023/02/28 12:26:24;;;;;;;7.85;5.57;;;12.90;88.20;;;;;;4674485;30;20221;-73
2023/02/28 12:28:58;;;;;;;8.60;5.55;;;13.00;87.70;;;;;;4673640;30;20219;-73
2023/02/28 12:31:44;;;;;;;6.65;5.20;;;13.20;86.60;;;;;;4671916;30;20233;-73
2023/02/28 12:34:15;;;;;;;8.82;5.20;;;13.20;86.10;;;;;;4671263;30;20204;-74
2023/02/28 12:36:44;;;;;;;8.85;5.60;;;13.30;85.70;;;;;;4664560;30;20192;-73
2023/02/28 12:39:28;;;;;;;8.70;5.80;;;13.40;83.60;;;;;;4675058;30;20191;-74
2023/02/28 12:42:05;;;;;;;8.52;5.68;;;13.30;82.80;;;;;;4671221;30;20276;-73
2023/02/28 12:44:33;;;;;;;7.72;5.60;;;13.20;82.70;;;;;;4677804;30;20220;-73
2023/02/28 12:47:06;;;;;;;7.97;5.07;;;13.30;82.50;;;;;;4672405;30;20699;-75
2023/02/28 12:50:00;;;;;;;8.98;6.03;;;13.40;80.70;;;;;;4674840;30;20229;-79
2023/02/28 12:52:34;;;;;;;10.57;6.20;;;13.20;80.50;;;;;;4663779;30;20643;-73
2023/02/28 12:55:20;;;;;;;8.77;6.10;;;13.00;81.60;;;;;;4648395;30;20181;-73
2023/02/28 12:58:07;;;;;;;9.90;5.88;;;12.80;80.90;;;;;;4665214;30;20217;-73
2023/02/28 13:00:36;;;;;;;9.95;6.60;;;12.60;80.60;;;;;;4681908;30;20181;-73
2023/02/28 13:03:32;;;;;;;7.85;6.05;;;12.60;81.20;;;;;;4667123;30;20651;-74
2023/02/28 13:06:10;;;;;;;9.85;6.63;;;12.60;80.90;;;;;;4672711;30;20687;-73